createdAt,value
2017-12-16T00:00:32.344Z,94.23
2017-12-16T00:01:32.337Z,94.32
2017-12-16T00:02:32.311Z,94.23
2017-12-16T00:03:32.298Z,95.17
2017-12-16T00:04:32.293Z,95.07
2017-12-16T00:05:32.290Z,94.98
2017-12-16T00:06:32.274Z,95.07
2017-12-16T00:07:32.266Z,95.17
2017-12-16T00:08:32.256Z,94.79
2017-12-16T00:09:32.243Z,95.17
2017-12-16T00:10:32.229Z,94.32
2017-12-16T00:11:32.748Z,94.51
2017-12-16T00:12:32.212Z,94.13
2017-12-16T00:13:32.204Z,94.70
2017-12-16T00:14:32.195Z,94.51
2017-12-16T00:15:32.181Z,94.13
2017-12-16T00:16:32.165Z,94.37
2017-12-16T00:17:32.755Z,94.08
2017-12-16T00:18:32.750Z,94.08
2017-12-16T00:19:32.142Z,94.13
2017-12-16T00:20:32.141Z,94.23
2017-12-16T00:21:32.761Z,94.08
2017-12-16T00:22:32.118Z,94.32
2017-12-16T00:23:32.749Z,94.18
2017-12-16T00:24:34.752Z,94.56
2017-12-16T00:25:32.079Z,93.99
2017-12-16T00:26:32.085Z,93.89
2017-12-16T00:27:32.747Z,93.70
2017-12-16T00:28:32.040Z,93.80
2017-12-16T00:29:32.044Z,93.32
2017-12-16T00:30:32.751Z,93.46
2017-12-16T00:31:32.018Z,93.41
2017-12-16T00:32:32.751Z,93.13
2017-12-16T00:33:32.018Z,93.56
2017-12-16T00:34:34.755Z,93.61
2017-12-16T00:35:32.747Z,93.23
2017-12-16T00:36:31.962Z,93.13
2017-12-16T00:37:31.964Z,93.23
2017-12-16T00:38:32.748Z,93.23
2017-12-16T00:39:31.938Z,93.51
2017-12-16T00:40:31.919Z,92.76
2017-12-16T00:41:31.912Z,92.61
2017-12-16T00:42:32.754Z,92.57
2017-12-16T00:43:31.905Z,92.66
2017-12-16T00:44:31.897Z,92.66
2017-12-16T00:45:32.757Z,92.94
2017-12-16T00:46:31.865Z,93.04
2017-12-16T00:47:31.851Z,92.38
2017-12-16T00:48:31.851Z,92.52
2017-12-16T00:49:31.836Z,92.28
2017-12-16T00:50:32.750Z,92.18
2017-12-16T00:51:31.813Z,92.33
2017-12-16T00:52:31.808Z,92.28
2017-12-16T00:53:31.798Z,92.57
2017-12-16T00:54:31.779Z,92.18
2017-12-16T00:55:32.768Z,91.99
2017-12-16T00:56:32.757Z,92.09
2017-12-16T00:57:31.764Z,92.09
2017-12-16T00:58:34.259Z,92.28
2017-12-16T00:59:31.724Z,92.18
2017-12-16T01:00:31.736Z,92.18
2017-12-16T01:01:31.714Z,92.09
2017-12-16T01:02:31.704Z,92.09
2017-12-16T01:03:31.701Z,92.28
2017-12-16T01:04:31.687Z,91.90
2017-12-16T01:05:31.676Z,92.38
2017-12-16T01:06:31.656Z,92.28
2017-12-16T01:07:31.654Z,92.18
2017-12-16T01:08:31.652Z,92.28
2017-12-16T01:09:31.636Z,91.99
2017-12-16T01:10:31.630Z,92.09
2017-12-16T01:11:31.618Z,91.14
2017-12-16T01:12:31.602Z,91.52
2017-12-16T01:13:40.236Z,91.33
2017-12-16T01:16:22.650Z,91.80
2017-12-16T01:17:14.967Z,91.52
2017-12-16T01:19:58.339Z,91.52
2017-12-16T01:20:58.304Z,91.42
2017-12-16T01:23:42.762Z,91.99
2017-12-16T01:24:42.642Z,91.99
2017-12-16T01:27:27.100Z,91.33
2017-12-16T01:28:27.003Z,91.33
2017-12-16T01:31:12.895Z,91.33
2017-12-16T01:32:12.856Z,91.24
2017-12-16T01:33:12.842Z,91.61
2017-12-16T01:34:12.833Z,91.33
2017-12-16T01:35:12.819Z,91.52
2017-12-16T01:36:12.810Z,91.71
2017-12-16T01:37:12.798Z,91.42
2017-12-16T01:38:12.788Z,91.61
2017-12-16T01:39:12.784Z,91.33
2017-12-16T01:40:12.771Z,91.61
2017-12-16T01:41:12.751Z,91.61
2017-12-16T01:42:12.755Z,91.52
2017-12-16T01:43:12.737Z,91.33
2017-12-16T01:44:12.731Z,91.24
2017-12-16T01:45:12.723Z,91.24
2017-12-16T01:46:12.714Z,91.61
2017-12-16T01:47:12.716Z,91.33
2017-12-16T01:48:12.693Z,91.61
2017-12-16T01:49:12.682Z,91.71
2017-12-16T01:50:12.671Z,91.52
2017-12-16T01:51:12.663Z,91.52
2017-12-16T01:52:13.446Z,91.52
2017-12-16T01:53:12.637Z,91.52
2017-12-16T01:54:12.629Z,91.99
2017-12-16T01:55:12.614Z,92.09
2017-12-16T01:56:12.607Z,92.47
2017-12-16T01:57:12.596Z,92.28
2017-12-16T01:58:13.437Z,91.90
2017-12-16T01:59:12.587Z,91.61
2017-12-16T02:00:12.572Z,91.99
2017-12-16T02:01:12.565Z,91.71
2017-12-16T02:02:12.551Z,91.99
2017-12-16T02:03:12.543Z,91.80
2017-12-16T02:04:12.532Z,92.09
2017-12-16T02:05:12.522Z,91.80
2017-12-16T02:06:12.514Z,91.80
2017-12-16T02:07:12.502Z,91.99
2017-12-16T02:08:12.493Z,91.99
2017-12-16T02:09:13.444Z,91.99
2017-12-16T02:10:13.442Z,91.99
2017-12-16T02:11:12.455Z,91.90
2017-12-16T02:12:13.445Z,91.99
2017-12-16T02:13:12.443Z,91.99
2017-12-16T02:14:12.428Z,91.99
2017-12-16T02:15:12.426Z,92.18
2017-12-16T02:16:12.944Z,91.80
2017-12-16T02:17:12.403Z,92.18
2017-12-16T02:18:12.392Z,91.99
2017-12-16T02:19:12.378Z,91.33
2017-12-16T02:20:12.373Z,91.52
2017-12-16T02:21:12.358Z,91.61
2017-12-16T02:22:14.944Z,91.33
2017-12-16T02:23:12.358Z,91.33
2017-12-16T02:24:12.331Z,91.14
2017-12-16T02:25:12.320Z,91.05
2017-12-16T02:26:12.314Z,91.42
2017-12-16T02:27:12.304Z,91.05
2017-12-16T02:28:12.290Z,91.05
2017-12-16T02:29:12.285Z,91.24
2017-12-16T02:30:12.273Z,90.95
2017-12-16T02:31:12.268Z,91.71
2017-12-16T02:32:12.252Z,91.05
2017-12-16T02:33:12.234Z,91.33
2017-12-16T02:34:14.950Z,91.33
2017-12-16T02:35:12.216Z,91.61
2017-12-16T02:36:12.210Z,91.42
2017-12-16T02:37:12.204Z,91.33
2017-12-16T02:38:12.189Z,91.33
2017-12-16T02:39:12.182Z,91.61
2017-12-16T02:40:12.956Z,91.71
2017-12-16T02:41:12.166Z,91.42
2017-12-16T02:42:12.152Z,91.05
2017-12-16T02:43:12.144Z,91.24
2017-12-16T02:44:12.134Z,91.52
2017-12-16T02:45:12.126Z,91.80
2017-12-16T02:46:12.110Z,91.52
2017-12-16T02:47:12.106Z,91.14
2017-12-16T02:48:12.092Z,90.95
2017-12-16T02:49:12.082Z,91.05
2017-12-16T02:50:12.071Z,91.33
2017-12-16T02:51:12.062Z,91.61
2017-12-16T02:52:12.960Z,91.80
2017-12-16T02:53:12.042Z,90.95
2017-12-16T02:54:12.035Z,91.71
2017-12-16T02:55:12.035Z,91.80
2017-12-16T02:56:12.013Z,91.52
2017-12-16T02:57:12.001Z,91.52
2017-12-16T02:58:12.960Z,91.24
2017-12-16T02:59:11.981Z,91.42
2017-12-16T03:00:11.973Z,91.80
2017-12-16T03:01:11.964Z,91.14
2017-12-16T03:02:11.953Z,91.14
2017-12-16T03:03:11.958Z,91.71
2017-12-16T03:04:12.460Z,91.52
2017-12-16T03:05:14.455Z,91.24
2017-12-16T03:06:11.910Z,91.05
2017-12-16T03:07:11.905Z,91.05
2017-12-16T03:08:11.890Z,90.95
2017-12-16T03:09:11.944Z,91.52
2017-12-16T03:10:12.463Z,91.52
2017-12-16T03:11:11.865Z,91.24
2017-12-16T03:12:11.858Z,91.42
2017-12-16T03:13:11.844Z,91.61
2017-12-16T03:14:11.836Z,91.61
2017-12-16T03:15:11.828Z,91.42
2017-12-16T03:16:11.811Z,91.52
2017-12-16T03:17:11.801Z,91.42
2017-12-16T03:18:11.797Z,91.05
2017-12-16T03:19:11.788Z,91.52
2017-12-16T03:20:11.777Z,91.33
2017-12-16T03:21:11.765Z,91.33
2017-12-16T03:22:14.464Z,91.24
2017-12-16T03:23:12.467Z,91.33
2017-12-16T03:24:11.737Z,91.42
2017-12-16T03:25:11.732Z,91.42
2017-12-16T03:26:11.714Z,91.61
2017-12-16T03:27:11.706Z,91.42
2017-12-16T03:28:12.467Z,91.99
2017-12-16T03:29:11.681Z,91.42
2017-12-16T03:30:11.663Z,91.33
2017-12-16T03:31:11.669Z,91.42
2017-12-16T03:32:11.649Z,91.33
2017-12-16T03:33:11.656Z,91.80
2017-12-16T03:34:11.634Z,91.90
2017-12-16T03:35:11.624Z,91.90
2017-12-16T03:36:11.636Z,91.99
2017-12-16T03:37:11.605Z,91.71
2017-12-16T03:38:11.595Z,91.99
2017-12-16T03:39:12.474Z,91.80
2017-12-16T03:40:11.580Z,91.61
2017-12-16T03:41:11.565Z,92.09
2017-12-16T03:42:11.557Z,92.47
2017-12-16T03:43:12.465Z,92.47
2017-12-16T03:44:11.536Z,92.57
2017-12-16T03:45:11.524Z,91.99
2017-12-16T03:46:11.518Z,92.38
2017-12-16T03:47:11.504Z,91.99
2017-12-16T03:48:11.494Z,92.18
2017-12-16T03:49:11.485Z,92.18
2017-12-16T03:50:11.474Z,92.09
2017-12-16T03:51:11.463Z,92.09
2017-12-16T03:52:11.460Z,92.09
2017-12-16T03:53:11.446Z,91.42
2017-12-16T03:54:11.978Z,91.52
2017-12-16T03:55:11.424Z,91.71
2017-12-16T03:56:11.409Z,91.80
2017-12-16T03:57:11.410Z,91.52
2017-12-16T03:58:11.416Z,91.71
2017-12-16T03:59:11.378Z,91.42
2017-12-16T04:00:11.374Z,91.52
2017-12-16T04:01:11.374Z,91.33
2017-12-16T04:02:11.345Z,91.99
2017-12-16T04:03:11.339Z,91.52
2017-12-16T04:04:11.335Z,91.42
2017-12-16T04:05:11.327Z,91.33
2017-12-16T04:06:11.972Z,91.33
2017-12-16T04:07:11.304Z,91.52
2017-12-16T04:08:11.984Z,91.61
2017-12-16T04:09:11.288Z,91.71
2017-12-16T04:10:11.275Z,91.52
2017-12-16T04:11:11.271Z,91.61
2017-12-16T04:12:11.252Z,91.71
2017-12-16T04:13:13.985Z,91.71
2017-12-16T04:14:11.241Z,91.71
2017-12-16T04:15:11.237Z,91.71
2017-12-16T04:16:11.213Z,91.52
2017-12-16T04:17:11.210Z,91.33
2017-12-16T04:18:11.191Z,91.52
2017-12-16T04:19:11.184Z,91.33
2017-12-16T04:20:11.174Z,91.33
2017-12-16T04:21:11.160Z,91.52
2017-12-16T04:22:11.153Z,91.61
2017-12-16T04:23:11.140Z,90.95
2017-12-16T04:24:13.994Z,91.71
2017-12-16T04:25:11.127Z,91.61
2017-12-16T04:26:11.116Z,91.52
2017-12-16T04:27:11.106Z,91.80
2017-12-16T04:28:11.134Z,91.33
2017-12-16T04:29:11.085Z,91.05
2017-12-16T04:30:11.080Z,91.33
2017-12-16T04:31:11.995Z,90.86
2017-12-16T04:32:11.051Z,90.95
2017-12-16T04:33:11.044Z,90.86
2017-12-16T04:34:11.037Z,91.33
2017-12-16T04:35:11.024Z,91.05
2017-12-16T04:36:11.013Z,91.24
2017-12-16T04:37:11.979Z,91.24
2017-12-16T04:38:11.984Z,91.42
2017-12-16T04:39:10.986Z,91.05
2017-12-16T04:40:10.972Z,90.95
2017-12-16T04:41:10.969Z,90.95
2017-12-16T04:42:10.957Z,91.05
2017-12-16T04:43:10.953Z,90.95
2017-12-16T04:44:10.937Z,90.95
2017-12-16T04:45:10.928Z,90.95
2017-12-16T04:46:10.921Z,91.05
2017-12-16T04:47:10.916Z,90.67
2017-12-16T04:48:10.899Z,90.57
2017-12-16T04:49:10.885Z,90.38
2017-12-16T04:50:10.879Z,90.19
2017-12-16T04:51:10.869Z,90.38
2017-12-16T04:52:11.492Z,90.19
2017-12-16T04:53:10.843Z,90.95
2017-12-16T04:54:10.835Z,90.95
2017-12-16T04:55:10.829Z,91.05
2017-12-16T04:56:10.823Z,90.57
2017-12-16T04:57:10.811Z,90.57
2017-12-16T04:58:11.494Z,91.05
2017-12-16T04:59:10.787Z,90.86
2017-12-16T05:00:10.778Z,91.05
2017-12-16T05:01:10.769Z,91.14
2017-12-16T05:02:10.758Z,91.05
2017-12-16T05:03:10.761Z,91.24
2017-12-16T05:04:11.499Z,91.05
2017-12-16T05:05:10.723Z,91.05
2017-12-16T05:06:10.715Z,91.14
2017-12-16T05:07:10.707Z,90.95
2017-12-16T05:08:10.697Z,91.05
2017-12-16T05:09:10.687Z,91.05
2017-12-16T05:10:10.676Z,90.95
2017-12-16T05:11:10.670Z,91.05
2017-12-16T05:12:10.658Z,91.33
2017-12-16T05:13:10.649Z,91.14
2017-12-16T05:14:10.651Z,91.05
2017-12-16T05:15:10.635Z,90.95
2017-12-16T05:16:10.621Z,90.86
2017-12-16T05:17:10.612Z,90.76
2017-12-16T05:18:10.626Z,90.76
2017-12-16T05:19:10.585Z,90.95
2017-12-16T05:20:10.577Z,91.05
2017-12-16T05:21:10.566Z,90.57
2017-12-16T05:22:11.500Z,91.14
2017-12-16T05:23:10.555Z,90.76
2017-12-16T05:24:10.538Z,91.14
2017-12-16T05:25:10.529Z,91.05
2017-12-16T05:26:10.527Z,91.14
2017-12-16T05:27:10.516Z,90.95
2017-12-16T05:28:10.498Z,91.14
2017-12-16T05:29:10.490Z,90.95
2017-12-16T05:30:10.485Z,91.24
2017-12-16T05:31:10.468Z,91.05
2017-12-16T05:32:10.460Z,90.95
2017-12-16T05:33:10.447Z,90.76
2017-12-16T05:34:11.001Z,90.57
2017-12-16T05:35:10.435Z,90.57
2017-12-16T05:36:10.425Z,91.14
2017-12-16T05:37:10.406Z,90.95
2017-12-16T05:38:10.406Z,90.76
2017-12-16T05:39:17.009Z,90.76
2017-12-16T05:40:10.386Z,90.76
2017-12-16T05:41:13.001Z,90.86
2017-12-16T05:42:10.359Z,90.76
2017-12-16T05:43:10.352Z,90.76
2017-12-16T05:44:10.343Z,90.57
2017-12-16T05:45:10.332Z,90.86
2017-12-16T05:46:11.006Z,90.67
2017-12-16T05:47:10.315Z,90.67
2017-12-16T05:48:10.298Z,90.76
2017-12-16T05:49:10.283Z,90.76
2017-12-16T05:50:10.281Z,90.86
2017-12-16T05:51:10.282Z,90.95
2017-12-16T05:52:11.013Z,91.05
2017-12-16T05:53:10.267Z,91.80
2017-12-16T05:54:10.253Z,91.42
2017-12-16T05:55:10.238Z,91.52
2017-12-16T05:56:10.230Z,91.71
2017-12-16T05:57:10.215Z,91.52
2017-12-16T05:58:13.069Z,91.80
2017-12-16T05:59:11.010Z,91.52
2017-12-16T06:00:10.183Z,91.52
2017-12-16T06:01:11.460Z,91.80
2017-12-16T06:02:10.170Z,91.05
2017-12-16T06:03:10.150Z,91.42
2017-12-16T06:04:11.017Z,91.14
2017-12-16T06:05:13.016Z,91.14
2017-12-16T06:06:11.035Z,91.33
2017-12-16T06:07:10.126Z,90.86
2017-12-16T06:08:10.115Z,91.05
2017-12-16T06:09:10.097Z,91.05
2017-12-16T06:10:11.017Z,91.05
2017-12-16T06:11:11.020Z,90.95
2017-12-16T06:12:10.067Z,91.05
2017-12-16T06:13:10.064Z,91.05
2017-12-16T06:14:10.053Z,91.52
2017-12-16T06:15:10.040Z,91.52
2017-12-16T06:16:10.028Z,91.52
2017-12-16T06:17:10.027Z,91.80
2017-12-16T06:18:10.011Z,91.61
2017-12-16T06:19:10.014Z,91.52
2017-12-16T06:20:09.990Z,91.52
2017-12-16T06:21:09.984Z,91.24
2017-12-16T06:22:09.971Z,91.71
2017-12-16T06:23:09.973Z,91.33
2017-12-16T06:24:09.954Z,91.24
2017-12-16T06:25:09.941Z,92.09
2017-12-16T06:26:09.941Z,92.18
2017-12-16T06:27:09.926Z,91.52
2017-12-16T06:28:09.905Z,92.09
2017-12-16T06:29:09.902Z,92.57
2017-12-16T06:30:09.890Z,92.09
2017-12-16T06:31:09.882Z,91.99
2017-12-16T06:32:10.527Z,92.85
2017-12-16T06:33:10.531Z,92.94
2017-12-16T06:34:09.873Z,92.94
2017-12-16T06:35:10.525Z,93.41
2017-12-16T06:36:09.840Z,93.41
2017-12-16T06:37:09.827Z,93.61
2017-12-16T06:38:09.819Z,93.70
2017-12-16T06:39:09.822Z,93.80
2017-12-16T06:40:09.796Z,93.89
2017-12-16T06:41:10.526Z,93.89
2017-12-16T06:42:09.775Z,94.18
2017-12-16T06:43:09.769Z,93.89
2017-12-16T06:44:09.761Z,93.99
2017-12-16T06:45:09.750Z,93.89
2017-12-16T06:46:09.732Z,93.89
2017-12-16T06:47:10.530Z,94.18
2017-12-16T06:48:09.722Z,93.61
2017-12-16T06:49:09.710Z,93.61
2017-12-16T06:50:09.706Z,93.80
2017-12-16T06:51:10.550Z,94.08
2017-12-16T06:52:09.685Z,93.89
2017-12-16T06:53:09.662Z,94.74
2017-12-16T06:54:09.669Z,94.08
2017-12-16T06:55:10.537Z,93.89
2017-12-16T06:56:10.537Z,94.08
2017-12-16T06:57:10.526Z,93.32
2017-12-16T06:58:09.619Z,93.89
2017-12-16T06:59:12.523Z,94.08
2017-12-16T07:00:09.595Z,93.99
2017-12-16T07:01:09.583Z,93.41
2017-12-16T07:02:09.581Z,93.61
2017-12-16T07:03:09.574Z,93.61
2017-12-16T07:04:09.568Z,93.23
2017-12-16T07:05:09.555Z,93.51
2017-12-16T07:06:09.547Z,93.51
2017-12-16T07:07:09.534Z,93.41
2017-12-16T07:08:09.524Z,93.41
2017-12-16T07:09:09.513Z,93.13
2017-12-16T07:10:09.498Z,93.13
2017-12-16T07:11:09.497Z,93.41
2017-12-16T07:12:10.033Z,93.13
2017-12-16T07:13:09.479Z,93.41
2017-12-16T07:14:09.459Z,93.32
2017-12-16T07:15:09.461Z,92.57
2017-12-16T07:16:09.444Z,92.94
2017-12-16T07:17:09.433Z,92.38
2017-12-16T07:18:09.427Z,92.94
2017-12-16T07:19:09.418Z,93.61
2017-12-16T07:20:09.405Z,93.41
2017-12-16T07:21:09.393Z,93.13
2017-12-16T07:22:09.386Z,93.41
2017-12-16T07:23:09.376Z,93.23
2017-12-16T07:24:09.370Z,93.32
2017-12-16T07:25:09.349Z,93.41
2017-12-16T07:26:09.348Z,93.04
2017-12-16T07:27:09.349Z,93.32
2017-12-16T07:28:09.327Z,93.32
2017-12-16T07:29:09.316Z,93.99
2017-12-16T07:30:09.318Z,93.89
2017-12-16T07:31:09.290Z,93.80
2017-12-16T07:32:09.295Z,93.89
2017-12-16T07:33:09.277Z,93.80
2017-12-16T07:34:09.312Z,94.08
2017-12-16T07:35:10.068Z,93.89
2017-12-16T07:36:09.247Z,93.80
2017-12-16T07:37:09.242Z,93.89
2017-12-16T07:38:09.230Z,93.70
2017-12-16T07:39:09.218Z,93.89
2017-12-16T07:40:09.227Z,93.80
2017-12-16T07:41:09.208Z,94.08
2017-12-16T07:42:09.195Z,93.51
2017-12-16T07:43:09.184Z,93.70
2017-12-16T07:44:09.182Z,93.61
2017-12-16T07:45:09.165Z,93.51
2017-12-16T07:46:09.157Z,93.51
2017-12-16T07:47:09.161Z,93.32
2017-12-16T07:48:10.047Z,93.23
2017-12-16T07:49:09.117Z,93.51
2017-12-16T07:50:09.112Z,93.41
2017-12-16T07:51:09.107Z,93.61
2017-12-16T07:52:09.092Z,93.80
2017-12-16T07:53:09.087Z,93.61
2017-12-16T07:54:10.047Z,93.51
2017-12-16T07:55:10.047Z,93.41
2017-12-16T07:56:10.064Z,93.51
2017-12-16T07:57:09.044Z,93.51
2017-12-16T07:58:09.042Z,93.04
2017-12-16T07:59:09.032Z,93.51
2017-12-16T08:00:09.554Z,93.23
2017-12-16T08:01:09.003Z,93.61
2017-12-16T08:02:09.007Z,93.32
2017-12-16T08:03:08.990Z,93.70
2017-12-16T08:04:08.977Z,93.61
2017-12-16T08:05:08.968Z,93.51
2017-12-16T08:06:08.961Z,93.04
2017-12-16T08:07:08.949Z,93.51
2017-12-16T08:08:08.940Z,93.37
2017-12-16T08:09:08.930Z,93.32
2017-12-16T08:10:08.914Z,93.51
2017-12-16T08:11:08.910Z,93.37
2017-12-16T08:12:09.544Z,93.65
2017-12-16T08:13:08.889Z,93.41
2017-12-16T08:14:08.880Z,93.41
2017-12-16T08:15:08.871Z,93.46
2017-12-16T08:16:08.856Z,93.41
2017-12-16T08:17:08.861Z,92.80
2017-12-16T08:18:08.847Z,92.61
2017-12-16T08:19:08.837Z,92.80
2017-12-16T08:20:08.818Z,92.80
2017-12-16T08:21:08.817Z,92.71
2017-12-16T08:22:08.807Z,92.99
2017-12-16T08:23:08.799Z,92.90
2017-12-16T08:24:09.557Z,92.90
2017-12-16T08:25:08.771Z,92.90
2017-12-16T08:26:09.567Z,92.99
2017-12-16T08:27:09.549Z,92.80
2017-12-16T08:28:08.746Z,92.61
2017-12-16T08:29:08.737Z,93.65
2017-12-16T08:30:09.558Z,92.61
2017-12-16T08:31:09.556Z,93.84
2017-12-16T08:32:08.708Z,93.56
2017-12-16T08:33:08.698Z,93.56
2017-12-16T08:34:08.695Z,92.99
2017-12-16T08:35:08.681Z,92.80
2017-12-16T08:36:09.560Z,92.90
2017-12-16T08:37:09.561Z,92.90
2017-12-16T08:38:08.650Z,92.90
2017-12-16T08:39:09.576Z,92.90
2017-12-16T08:40:08.635Z,92.90
2017-12-16T08:41:08.633Z,93.56
2017-12-16T08:42:08.617Z,93.27
2017-12-16T08:43:08.607Z,93.75
2017-12-16T08:44:08.598Z,94.13
2017-12-16T08:45:08.591Z,93.94
2017-12-16T08:46:08.573Z,93.94
2017-12-16T08:47:08.589Z,93.94
2017-12-16T08:48:08.555Z,93.94
2017-12-16T08:49:13.172Z,93.84
2017-12-16T08:50:08.538Z,93.84
2017-12-16T08:51:08.533Z,93.37
2017-12-16T08:52:08.517Z,94.13
2017-12-16T08:53:08.533Z,93.94
2017-12-16T08:54:08.494Z,94.42
2017-12-16T08:55:08.500Z,94.32
2017-12-16T08:56:08.484Z,94.70
2017-12-16T08:57:08.469Z,94.03
2017-12-16T08:58:08.465Z,94.42
2017-12-16T08:59:08.463Z,94.60
2017-12-16T09:00:08.439Z,94.60
2017-12-16T09:01:09.067Z,94.42
2017-12-16T09:02:09.069Z,94.23
2017-12-16T09:03:08.426Z,94.79
2017-12-16T09:04:08.413Z,94.79
2017-12-16T09:05:08.394Z,94.13
2017-12-16T09:06:08.384Z,93.94
2017-12-16T09:07:08.405Z,93.94
2017-12-16T09:08:08.417Z,94.23
2017-12-16T09:09:08.359Z,93.94
2017-12-16T09:10:08.351Z,94.03
2017-12-16T09:11:08.331Z,94.03
2017-12-16T09:12:09.078Z,94.13
2017-12-16T09:13:09.074Z,93.94
2017-12-16T09:14:08.326Z,93.94
2017-12-16T09:15:08.326Z,93.37
2017-12-16T09:16:08.290Z,93.94
2017-12-16T09:17:08.287Z,94.13
2017-12-16T09:18:08.271Z,94.51
2017-12-16T09:19:08.270Z,93.84
2017-12-16T09:20:08.638Z,94.03
2017-12-16T09:21:08.272Z,94.70
2017-12-16T09:21:21.320Z,93.94
2017-12-16T09:23:08.228Z,94.03
2017-12-16T09:24:08.320Z,93.27
2017-12-16T09:25:08.213Z,93.56
2017-12-16T09:26:08.474Z,93.56
2017-12-16T09:27:09.070Z,93.32
2017-12-16T09:28:08.188Z,93.60
2017-12-16T09:29:09.076Z,93.60
2017-12-16T09:30:08.708Z,93.51
2017-12-16T09:31:08.169Z,93.65
2017-12-16T09:32:08.150Z,93.51
2017-12-16T09:33:08.143Z,93.51
2017-12-16T09:34:08.141Z,92.94
2017-12-16T09:35:08.132Z,93.23
2017-12-16T09:36:08.107Z,92.94
2017-12-16T09:37:08.096Z,92.75
2017-12-16T09:38:08.101Z,92.18
2017-12-16T09:39:08.084Z,92.28
2017-12-16T09:40:08.094Z,92.18
2017-12-16T09:41:08.074Z,92.37
2017-12-16T09:42:08.064Z,92.47
2017-12-16T09:43:08.599Z,92.47
2017-12-16T09:44:08.042Z,92.66
2017-12-16T09:45:08.588Z,92.37
2017-12-16T09:46:08.023Z,92.28
2017-12-16T09:47:08.013Z,93.32
2017-12-16T09:48:08.012Z,92.56
2017-12-16T09:49:07.997Z,92.28
2017-12-16T09:50:07.991Z,91.61
2017-12-16T09:51:07.988Z,91.33
2017-12-16T09:52:10.587Z,91.24
2017-12-16T09:53:07.970Z,90.28
2017-12-16T09:54:07.958Z,90.66
2017-12-16T09:55:07.951Z,90.28
2017-12-16T09:56:07.956Z,91.04
2017-12-16T09:57:18.822Z,90.28
2017-12-16T10:00:31.039Z,89.81
2017-12-16T10:03:34.492Z,92.09
2017-12-16T10:06:37.835Z,93.99
2017-12-16T10:07:37.759Z,94.65
2017-12-16T10:10:22.205Z,94.23
2017-12-16T10:11:22.088Z,93.56
2017-12-16T10:14:07.050Z,91.19
2017-12-16T10:15:05.456Z,91.66
2017-12-16T10:17:49.876Z,89.76
2017-12-16T10:18:50.316Z,89.57
2017-12-16T10:21:40.751Z,88.53
2017-12-16T10:22:34.164Z,87.86
2017-12-16T10:25:18.544Z,87.95
2017-12-16T10:26:18.510Z,88.67
2017-12-16T10:29:01.904Z,88.86
2017-12-16T10:30:01.927Z,89.00
2017-12-16T10:32:46.262Z,88.57
2017-12-16T10:33:46.628Z,88.76
2017-12-16T10:36:30.592Z,89.14
2017-12-16T10:37:30.562Z,89.43
2017-12-16T10:40:13.940Z,89.19
2017-12-16T10:41:13.916Z,88.53
2017-12-16T10:42:13.915Z,88.86
2017-12-16T10:43:20.934Z,88.48
2017-12-16T10:44:16.823Z,88.86
2017-12-16T10:45:17.335Z,89.43
2017-12-16T10:46:42.392Z,89.53
2017-12-16T10:47:29.244Z,89.72
2017-12-16T10:48:29.203Z,90.09
2017-12-16T10:49:29.990Z,89.81
2017-12-16T10:50:29.208Z,90.19
2017-12-16T10:51:29.180Z,90.19
2017-12-16T10:52:29.159Z,89.38
2017-12-16T10:53:29.984Z,88.90
2017-12-16T10:54:29.151Z,89.86
2017-12-16T10:55:29.143Z,89.86
2017-12-16T10:56:29.139Z,89.86
2017-12-16T10:57:29.128Z,89.09
2017-12-16T10:58:29.118Z,88.81
2017-12-16T10:59:29.107Z,89.09
2017-12-16T11:00:29.099Z,89.47
2017-12-16T11:01:29.092Z,88.90
2017-12-16T11:02:29.083Z,88.90
2017-12-16T11:03:29.071Z,88.81
2017-12-16T11:04:29.068Z,88.24
2017-12-16T11:05:29.062Z,88.15
2017-12-16T11:06:29.046Z,87.86
2017-12-16T11:07:29.036Z,87.38
2017-12-16T11:08:29.030Z,86.82
2017-12-16T11:09:31.997Z,86.43
2017-12-16T11:10:29.022Z,86.43
2017-12-16T11:11:29.996Z,85.86
2017-12-16T11:12:28.996Z,86.15
2017-12-16T11:13:28.986Z,85.49
2017-12-16T11:14:29.550Z,85.77
2017-12-16T11:15:28.978Z,85.58
2017-12-16T11:16:28.978Z,85.49
2017-12-16T11:17:28.961Z,85.49
2017-12-16T11:18:28.953Z,85.68
2017-12-16T11:19:28.942Z,85.11
2017-12-16T11:20:28.926Z,85.49
2017-12-16T11:21:28.923Z,85.68
2017-12-16T11:22:28.917Z,85.96
2017-12-16T11:23:28.907Z,85.62
2017-12-16T11:24:29.509Z,85.91
2017-12-16T11:25:28.892Z,85.91
2017-12-16T11:26:28.892Z,86.29
2017-12-16T11:27:28.884Z,86.29
2017-12-16T11:28:28.875Z,86.00
2017-12-16T11:29:28.863Z,85.05
2017-12-16T11:30:28.859Z,84.53
2017-12-16T11:31:29.507Z,84.39
2017-12-16T11:32:28.842Z,84.01
2017-12-16T11:33:29.510Z,84.48
2017-12-16T11:34:28.813Z,84.82
2017-12-16T11:35:28.819Z,84.67
2017-12-16T11:36:28.812Z,84.91
2017-12-16T11:37:28.829Z,84.58
2017-12-16T11:38:28.793Z,84.77
2017-12-16T11:39:28.784Z,84.48
2017-12-16T11:40:28.778Z,85.11
2017-12-16T11:41:28.765Z,84.48
2017-12-16T11:42:28.771Z,85.05
2017-12-16T11:43:28.748Z,85.43
2017-12-16T11:44:29.515Z,84.95
2017-12-16T11:45:29.510Z,85.15
2017-12-16T11:46:28.732Z,85.15
2017-12-16T11:47:28.711Z,84.48
2017-12-16T11:48:28.703Z,84.77
2017-12-16T11:49:29.511Z,84.39
2017-12-16T11:50:28.942Z,84.29
2017-12-16T11:51:28.687Z,84.20
2017-12-16T11:52:28.688Z,83.25
2017-12-16T11:53:28.676Z,83.72
2017-12-16T11:54:28.662Z,83.25
2017-12-16T11:55:28.672Z,83.06
2017-12-16T11:56:28.647Z,84.10
2017-12-16T11:57:28.643Z,83.82
2017-12-16T11:58:28.972Z,83.62
2017-12-16T11:59:28.634Z,83.15
2017-12-16T12:00:28.626Z,83.34
2017-12-16T12:01:28.607Z,84.01
2017-12-16T12:02:28.598Z,83.44
2017-12-16T12:03:28.603Z,83.53
2017-12-16T12:04:28.584Z,83.15
2017-12-16T12:05:29.509Z,83.25
2017-12-16T12:06:28.563Z,83.15
2017-12-16T12:07:28.564Z,83.25
2017-12-16T12:08:28.555Z,83.25
2017-12-16T12:09:28.561Z,82.87
2017-12-16T12:10:28.544Z,82.87
2017-12-16T12:11:28.528Z,83.44
2017-12-16T12:12:28.534Z,83.34
2017-12-16T12:13:28.521Z,83.34
2017-12-16T12:14:28.510Z,84.01
2017-12-16T12:15:28.501Z,83.62
2017-12-16T12:16:28.492Z,84.10
2017-12-16T12:17:28.551Z,83.91
2017-12-16T12:18:28.481Z,83.53
2017-12-16T12:19:28.771Z,83.25
2017-12-16T12:20:28.461Z,83.06
2017-12-16T12:21:28.450Z,83.62
2017-12-16T12:22:28.445Z,83.25
2017-12-16T12:23:28.448Z,83.06
2017-12-16T12:24:28.432Z,83.25
2017-12-16T12:25:28.427Z,83.25
2017-12-16T12:26:28.422Z,83.06
2017-12-16T12:27:28.662Z,83.25
2017-12-16T12:28:28.423Z,82.87
2017-12-16T12:29:28.397Z,83.25
2017-12-16T12:30:28.396Z,83.34
2017-12-16T12:31:28.385Z,83.25
2017-12-16T12:32:28.372Z,82.96
2017-12-16T12:33:29.029Z,83.53
2017-12-16T12:34:28.354Z,83.25
2017-12-16T12:35:29.034Z,83.44
2017-12-16T12:36:28.339Z,82.87
2017-12-16T12:37:28.332Z,83.06
2017-12-16T12:38:31.023Z,83.06
2017-12-16T12:39:29.042Z,83.72
2017-12-16T12:40:28.300Z,83.25
2017-12-16T12:41:28.300Z,83.91
2017-12-16T12:42:28.294Z,83.91
2017-12-16T12:43:28.276Z,83.62
2017-12-16T12:44:28.278Z,84.29
2017-12-16T12:45:28.262Z,84.20
2017-12-16T12:46:28.254Z,84.58
2017-12-16T12:47:28.252Z,84.86
2017-12-16T12:48:28.253Z,84.58
2017-12-16T12:49:28.242Z,84.86
2017-12-16T12:50:28.235Z,84.67
2017-12-16T12:51:28.219Z,84.95
2017-12-16T12:52:28.211Z,84.67
2017-12-16T12:53:28.226Z,84.20
2017-12-16T12:54:28.202Z,83.82
2017-12-16T12:55:28.187Z,84.10
2017-12-16T12:56:28.183Z,83.53
2017-12-16T12:57:29.036Z,83.25
2017-12-16T12:58:28.169Z,83.34
2017-12-16T12:59:28.153Z,82.49
2017-12-16T13:00:28.157Z,83.25
2017-12-16T13:01:28.142Z,82.77
2017-12-16T13:02:28.137Z,82.87
2017-12-16T13:03:28.126Z,84.29
2017-12-16T13:04:29.042Z,83.72
2017-12-16T13:05:28.117Z,84.29
2017-12-16T13:06:28.099Z,83.44
2017-12-16T13:07:29.043Z,83.25
2017-12-16T13:08:28.088Z,83.39
2017-12-16T13:09:28.071Z,83.91
2017-12-16T13:10:28.069Z,83.91
2017-12-16T13:11:28.058Z,84.01
2017-12-16T13:12:28.053Z,84.06
2017-12-16T13:13:28.045Z,83.72
2017-12-16T13:14:28.045Z,83.25
2017-12-16T13:15:28.030Z,83.34
2017-12-16T13:16:28.019Z,83.53
2017-12-16T13:17:28.014Z,83.72
2017-12-16T13:18:28.545Z,83.15
2017-12-16T13:19:27.999Z,83.34
2017-12-16T13:20:27.993Z,83.25
2017-12-16T13:21:27.990Z,82.96
2017-12-16T13:22:27.984Z,83.34
2017-12-16T13:23:27.962Z,82.87